Time;durP1;ratioP1;P1;durP2;ratioP2;P2;SDS_P1;SDS_P2;PMS_P1;PMS_P2;Temp;Humidity;BMP_temperature;BMP_pressure;BME280_temperature;BME280_humidity;BME280_pressure;Samples;Min_cycle;Max_cycle;Signal;HPM_P1;HPM_P2
2020/12/07 00:00:31;;;;;;;;;;;;;;;19.60;43.66;101160.56;5095261;28;993;-49
2020/12/07 00:02:57;;;;;;;;;;;;;;;20.46;41.59;101162.97;5096719;28;810;-59
2020/12/07 00:05:22;;;;;;;;;;;;;;;20.64;40.93;101152.31;5096694;28;779;-48
2020/12/07 00:07:48;;;;;;;;;;;;;;;20.10;42.25;101157.75;5095999;28;1963;-60
2020/12/07 00:10:13;;;;;;;;;;;;;;;20.05;42.20;101151.44;5095478;28;1110;-59
2020/12/07 00:12:40;;;;;;;;;;;;;;;19.53;43.43;101148.19;5096546;28;735;-50
2020/12/07 00:15:06;;;;;;;;;;;;;;;19.99;42.42;101153.44;5096080;28;787;-59
2020/12/07 00:17:31;;;;;;;;;;;;;;;20.83;40.59;101156.03;5096148;28;1043;-48
2020/12/07 00:19:56;;;;;;;;;;;;;;;20.46;41.19;101151.94;5096329;28;475;-61
2020/12/07 00:22:25;;;;;;;;;;;;;;;20.46;41.38;101162.97;5096053;28;744;-61
2020/12/07 00:24:51;;;;;;;;;;;;;;;19.90;42.45;101155.97;5095999;28;1009;-60
2020/12/07 00:27:23;;;;;;;;;;;;;;;19.59;43.59;101155.34;5096383;28;819;-60
2020/12/07 00:29:49;;;;;;;;;;;;;;;20.50;41.46;101153.00;5094381;28;1981;-60
2020/12/07 00:32:14;;;;;;;;;;;;;;;20.46;41.42;101162.16;5096188;28;855;-61
2020/12/07 00:34:40;;;;;;;;;;;;;;;20.19;42.07;101166.28;5096565;28;778;-60
2020/12/07 00:37:06;;;;;;;;;;;;;;;19.91;42.42;101160.41;5096639;28;763;-61
2020/12/07 00:39:31;;;;;;;;;;;;;;;19.47;43.47;101170.31;5100280;28;799;-62
2020/12/07 00:41:57;;;;;;;;;;;;;;;19.99;42.69;101181.88;5099751;28;1008;-60
2020/12/07 00:44:23;;;;;;;;;;;;;;;20.59;41.13;101189.09;5099712;28;839;-61
2020/12/07 00:46:48;;;;;;;;;;;;;;;20.29;41.73;101209.53;5098582;28;810;-61
2020/12/07 00:49:13;;;;;;;;;;;;;;;20.29;41.74;101207.59;5099850;28;1902;-60
2020/12/07 00:51:39;;;;;;;;;;;;;;;19.74;43.11;101204.91;5099468;28;763;-61
2020/12/07 00:54:04;;;;;;;;;;;;;;;19.35;43.98;101200.13;5099670;28;798;-60
2020/12/07 00:56:30;;;;;;;;;;;;;;;20.25;42.02;101209.28;5099425;28;1029;-55
2020/12/07 00:58:56;;;;;;;;;;;;;;;20.66;41.04;101210.88;5098333;28;1367;-61
2020/12/07 01:01:22;;;;;;;;;;;;;;;20.13;41.99;101204.13;5099642;28;751;-60
2020/12/07 01:03:47;;;;;;;;;;;;;;;20.25;41.64;101200.19;5098697;28;1144;-59
2020/12/07 01:06:13;;;;;;;;;;;;;;;19.90;42.70;101199.34;5098985;28;846;-61
2020/12/07 01:08:39;;;;;;;;;;;;;;;19.66;43.28;101205.50;5098547;28;1969;-62
2020/12/07 01:11:05;;;;;;;;;;;;;;;19.42;43.68;101206.16;5099211;28;1422;-62
2020/12/07 01:13:32;;;;;;;;;;;;;;;19.62;43.18;101205.22;5097729;28;1369;-63
2020/12/07 01:15:58;;;;;;;;;;;;;;;19.81;42.93;101194.41;5099380;28;803;-62
2020/12/07 01:18:25;;;;;;;;;;;;;;;19.60;43.05;101190.06;5098167;28;1213;-61
2020/12/07 01:20:51;;;;;;;;;;;;;;;20.23;41.92;101192.19;5080502;28;1190;-61
2020/12/07 01:23:18;;;;;;;;;;;;;;;20.57;41.04;101187.75;5098280;28;1270;-59
2020/12/07 01:25:43;;;;;;;;;;;;;;;20.10;42.03;101185.38;5098004;28;1240;-59
2020/12/07 01:28:09;;;;;;;;;;;;;;;20.07;41.98;101191.47;5097627;28;1962;-59
2020/12/07 01:30:34;;;;;;;;;;;;;;;19.68;42.95;101181.19;5097813;28;827;-55
2020/12/07 01:33:00;;;;;;;;;;;;;;;19.35;43.58;101183.59;5097773;28;1344;-57
2020/12/07 01:35:27;;;;;;;;;;;;;;;20.29;41.71;101184.69;5097801;28;1161;-58
2020/12/07 01:37:53;;;;;;;;;;;;;;;20.51;40.97;101175.94;5097934;28;1169;-57
2020/12/07 01:40:19;;;;;;;;;;;;;;;20.29;41.73;101173.66;5077461;28;1004;-58
2020/12/07 01:42:44;;;;;;;;;;;;;;;20.16;41.87;101175.94;5093793;28;811;-60
2020/12/07 01:45:10;;;;;;;;;;;;;;;19.62;42.92;101171.31;5094500;28;1307;-59
2020/12/07 01:47:36;;;;;;;;;;;;;;;19.48;43.67;101166.41;5093847;28;1367;-54
2020/12/07 01:50:07;;;;;;;;;;;;;;;20.47;41.19;101167.41;5077513;28;1185;-51
2020/12/07 01:52:32;;;;;;;;;;;;;;;20.35;41.38;101166.94;5076554;28;1252;-59
2020/12/07 01:54:58;;;;;;;;;;;;;;;20.26;41.46;101154.88;5063114;28;1190;-56
2020/12/07 01:57:34;;;;;;;;;;;;;;;20.08;42.01;101157.22;5082094;28;1316;-60
2020/12/07 02:00:07;;;;;;;;;;;;;;;19.52;43.03;101155.66;5081312;28;1146;-61
2020/12/07 02:02:44;;;;;;;;;;;;;;;19.78;42.86;101148.03;5098387;28;688;-60
2020/12/07 02:05:10;;;;;;;;;;;;;;;20.66;40.85;101150.06;5079827;28;1308;-60
2020/12/07 02:07:36;;;;;;;;;;;;;;;20.39;41.06;101156.97;5097182;28;1390;-60
2020/12/07 02:10:01;;;;;;;;;;;;;;;20.16;41.82;101156.63;5079665;28;1983;-58
2020/12/07 02:12:29;;;;;;;;;;;;;;;19.91;42.14;101163.16;5097057;28;1140;-59
2020/12/07 02:14:55;;;;;;;;;;;;;;;19.53;43.23;101157.31;5097353;28;1141;-63
2020/12/07 02:17:21;;;;;;;;;;;;;;;20.49;41.03;101159.63;5096190;28;1216;-58
2020/12/07 02:19:50;;;;;;;;;;;;;;;20.55;40.84;101148.53;5098008;28;780;-59
2020/12/07 02:22:15;;;;;;;;;;;;;;;20.34;41.47;101163.38;5097137;28;1101;-59
2020/12/07 02:25:19;;;;;;;;;;;;;;;19.92;42.29;101167.59;5055322;28;1319;-59
2020/12/07 02:27:44;;;;;;;;;;;;;;;19.60;42.91;101168.00;5072601;28;1914;-58
2020/12/07 02:30:10;;;;;;;;;;;;;;;19.31;43.56;101165.97;5076778;28;1232;-59
2020/12/07 02:32:35;;;;;;;;;;;;;;;20.39;41.22;101168.03;5076462;28;1204;-61
2020/12/07 02:35:09;;;;;;;;;;;;;;;20.45;40.89;101163.28;5076425;28;1117;-55
2020/12/07 02:37:42;;;;;;;;;;;;;;;20.32;41.13;101164.78;5076253;28;1524;-49
2020/12/07 02:40:08;;;;;;;;;;;;;;;20.04;41.69;101153.41;5081316;28;962;-58
2020/12/07 02:42:35;;;;;;;;;;;;;;;19.52;42.77;101161.16;5096240;28;1633;-62
2020/12/07 02:45:07;;;;;;;;;;;;;;;19.93;42.02;101154.59;5096670;28;1215;-57
2020/12/07 02:47:32;;;;;;;;;;;;;;;20.78;40.35;101147.78;5097503;28;764;-57
2020/12/07 02:49:58;;;;;;;;;;;;;;;21.13;39.34;101155.97;5096337;28;1981;-58
2020/12/07 02:52:26;;;;;;;;;;;;;;;20.73;40.26;101155.28;5079947;28;1331;-57
2020/12/07 02:54:56;;;;;;;;;;;;;;;20.51;40.90;101151.88;5096280;28;1373;-50
2020/12/07 02:57:26;;;;;;;;;;;;;;;20.00;41.98;101155.91;5096277;28;1276;-52
2020/12/07 02:59:53;;;;;;;;;;;;;;;19.48;42.94;101146.28;5096551;28;795;-57
2020/12/07 03:02:19;;;;;;;;;;;;;;;19.72;42.71;101138.13;5096313;28;1275;-57
2020/12/07 03:04:47;;;;;;;;;;;;;;;20.17;41.60;101135.34;5096129;28;1173;-58
2020/12/07 03:07:15;;;;;;;;;;;;;;;20.68;40.31;101136.84;5097069;28;835;-58
2020/12/07 03:09:44;;;;;;;;;;;;;;;20.37;41.14;101134.34;5095841;28;1922;-58
2020/12/07 03:12:10;;;;;;;;;;;;;;;20.11;41.46;101134.56;5095656;28;1343;-55
2020/12/07 03:14:36;;;;;;;;;;;;;;;19.70;42.28;101134.00;5097014;28;827;-58
2020/12/07 03:17:01;;;;;;;;;;;;;;;19.17;43.95;101143.69;5078781;28;767;-58
2020/12/07 03:19:27;;;;;;;;;;;;;;;20.21;41.44;101136.41;5061779;28;1285;-52
2020/12/07 03:21:53;;;;;;;;;;;;;;;20.48;40.81;101138.66;5095813;28;1137;-58
2020/12/07 03:24:19;;;;;;;;;;;;;;;20.22;41.47;101140.03;5096011;28;1129;-58
2020/12/07 03:26:46;;;;;;;;;;;;;;;19.94;42.05;101147.97;5096721;28;1111;-58
2020/12/07 03:29:17;;;;;;;;;;;;;;;19.75;42.41;101154.13;5095721;28;1913;-58
2020/12/07 03:31:45;;;;;;;;;;;;;;;19.59;42.79;101147.06;5079421;28;1324;-58
2020/12/07 03:34:12;;;;;;;;;;;;;;;20.59;40.65;101144.06;5095684;28;1169;-56
2020/12/07 03:36:39;;;;;;;;;;;;;;;20.41;40.94;101153.91;5095147;28;1294;-58
2020/12/07 03:39:05;;;;;;;;;;;;;;;20.30;41.15;101155.94;5095787;28;1160;-58
2020/12/07 03:41:33;;;;;;;;;;;;;;;19.91;41.66;101138.31;5095136;28;1375;-57
2020/12/07 03:44:01;;;;;;;;;;;;;;;19.49;42.97;101146.00;5095755;28;1253;-57
2020/12/07 03:46:29;;;;;;;;;;;;;;;19.38;43.19;101141.66;5095759;28;1216;-58
2020/12/07 03:48:55;;;;;;;;;;;;;;;19.38;43.22;101141.66;5096524;28;1947;-59
2020/12/07 03:51:22;;;;;;;;;;;;;;;19.79;42.19;101130.38;5078751;28;1353;-58
2020/12/07 03:53:48;;;;;;;;;;;;;;;19.56;42.59;101140.19;5095766;28;1228;-57
2020/12/07 03:56:14;;;;;;;;;;;;;;;19.35;43.13;101145.00;5095165;28;1137;-57
2020/12/07 03:58:40;;;;;;;;;;;;;;;20.32;41.07;101140.72;5095387;28;1204;-58
2020/12/07 04:01:09;;;;;;;;;;;;;;;20.54;40.38;101130.31;5078811;28;1138;-58
2020/12/07 04:03:37;;;;;;;;;;;;;;;20.10;41.41;101132.91;5095366;28;1271;-58
2020/12/07 04:06:13;;;;;;;;;;;;;;;20.06;41.53;101137.34;5079339;28;1521;-58
2020/12/07 04:08:39;;;;;;;;;;;;;;;19.63;42.24;101145.38;5095476;28;1914;-59
2020/12/07 04:11:04;;;;;;;;;;;;;;;19.75;42.15;101132.03;5096715;28;1040;-50
2020/12/07 04:13:30;;;;;;;;;;;;;;;20.47;40.32;101131.47;5100991;28;840;-57
2020/12/07 04:15:55;;;;;;;;;;;;;;;20.41;40.50;101132.66;5100552;28;791;-59
2020/12/07 04:18:21;;;;;;;;;;;;;;;20.11;41.17;101120.75;5100233;28;1031;-55
2020/12/07 04:20:46;;;;;;;;;;;;;;;20.00;41.38;101130.25;5100412;28;831;-60
2020/12/07 04:23:11;;;;;;;;;;;;;;;19.45;42.89;101127.56;5100513;28;803;-65
2020/12/07 04:25:37;;;;;;;;;;;;;;;20.09;41.68;101120.25;5100088;28;957;-57
2020/12/07 04:28:02;;;;;;;;;;;;;;;20.64;40.24;101121.94;5100123;28;1914;-58
2020/12/07 04:30:28;;;;;;;;;;;;;;;20.32;41.09;101134.41;5100325;28;870;-59
2020/12/07 04:32:53;;;;;;;;;;;;;;;20.17;41.38;101127.06;5098670;28;993;-60
2020/12/07 04:35:19;;;;;;;;;;;;;;;19.87;41.95;101122.63;5100248;28;763;-60
2020/12/07 04:37:44;;;;;;;;;;;;;;;19.50;42.66;101124.75;5100176;28;800;-61
2020/12/07 04:40:09;;;;;;;;;;;;;;;20.07;41.78;101127.97;5099684;28;961;-59
2020/12/07 04:42:35;;;;;;;;;;;;;;;20.69;40.16;101116.34;5099870;28;791;-59
2020/12/07 04:45:01;;;;;;;;;;;;;;;20.43;40.69;101110.28;5099088;28;791;-59
2020/12/07 04:47:26;;;;;;;;;;;;;;;20.16;41.25;101108.84;5099745;28;862;-60
2020/12/07 04:49:52;;;;;;;;;;;;;;;19.92;41.68;101115.13;5098779;28;1909;-57
2020/12/07 04:52:17;;;;;;;;;;;;;;;20.27;41.29;101110.41;5098284;28;1100;-58
2020/12/07 04:54:43;;;;;;;;;;;;;;;20.78;39.90;101113.78;5098932;28;926;-54
2020/12/07 04:57:09;;;;;;;;;;;;;;;20.32;41.08;101117.81;5097812;28;945;-56
2020/12/07 04:59:35;;;;;;;;;;;;;;;20.15;41.20;101108.03;5098253;28;791;-59
2020/12/07 05:02:01;;;;;;;;;;;;;;;19.78;42.10;101103.06;5081379;28;728;-58
2020/12/07 05:04:26;;;;;;;;;;;;;;;19.49;42.71;101110.16;5099759;28;755;-58
2020/12/07 05:06:59;;;;;;;;;;;;;;;20.45;40.74;101108.03;5098119;28;779;-57
2020/12/07 05:09:25;;;;;;;;;;;;;;;20.45;40.63;101100.56;5097932;28;1977;-55
2020/12/07 05:11:51;;;;;;;;;;;;;;;20.17;41.08;101110.50;5099263;28;1024;-57
2020/12/07 05:14:16;;;;;;;;;;;;;;;19.93;41.70;101100.22;5099526;28;836;-57
2020/12/07 05:16:43;;;;;;;;;;;;;;;19.77;42.16;101093.16;5099270;28;806;-57
2020/12/07 05:19:09;;;;;;;;;;;;;;;20.12;41.40;101092.06;5099070;28;1234;-55
2020/12/07 05:21:34;;;;;;;;;;;;;;;20.64;40.20;101091.53;5099103;28;748;-55
2020/12/07 05:24:00;;;;;;;;;;;;;;;20.32;40.87;101088.25;5098423;28;787;-56
2020/12/07 05:26:26;;;;;;;;;;;;;;;20.24;41.11;101088.88;5097473;28;1063;-57
2020/12/07 05:28:54;;;;;;;;;;;;;;;19.78;42.07;101090.09;5098886;28;1985;-57
2020/12/07 05:31:21;;;;;;;;;;;;;;;19.48;42.64;101088.38;5099100;28;870;-58
2020/12/07 05:33:47;;;;;;;;;;;;;;;19.52;42.61;101083.09;5097404;28;779;-59
2020/12/07 05:36:13;;;;;;;;;;;;;;;20.21;41.11;101080.38;5098893;28;819;-56
2020/12/07 05:38:39;;;;;;;;;;;;;;;20.77;39.87;101082.56;5099078;28;815;-59
2020/12/07 05:41:04;;;;;;;;;;;;;;;20.38;40.67;101088.22;5098315;28;961;-57
2020/12/07 05:43:30;;;;;;;;;;;;;;;20.30;40.76;101070.34;5098758;28;803;-58
2020/12/07 05:45:56;;;;;;;;;;;;;;;19.70;42.04;101068.63;5098784;28;775;-56
2020/12/07 05:48:22;;;;;;;;;;;;;;;19.47;42.61;101065.50;5098238;28;1983;-58
2020/12/07 05:50:47;;;;;;;;;;;;;;;20.18;41.07;101054.97;5097211;28;939;-58
2020/12/07 05:53:12;;;;;;;;;;;;;;;20.72;40.00;101060.53;5097720;28;803;-58
2020/12/07 05:55:38;;;;;;;;;;;;;;;20.13;41.26;101057.81;5096810;28;989;-56
2020/12/07 05:58:04;;;;;;;;;;;;;;;20.18;41.08;101051.41;5098891;28;784;-59
2020/12/07 06:00:33;;;;;;;;;;;;;;;19.82;41.72;101048.97;5098541;28;790;-59
2020/12/07 06:02:59;;;;;;;;;;;;;;;19.95;41.91;101058.50;5098142;28;791;-59
2020/12/07 06:05:24;;;;;;;;;;;;;;;20.50;40.53;101058.25;5098635;28;824;-59
2020/12/07 06:07:57;;;;;;;;;;;;;;;20.36;40.63;101052.59;5098366;28;799;-59
2020/12/07 06:10:24;;;;;;;;;;;;;;;20.30;40.80;101057.38;5096296;28;966;-58
2020/12/07 06:12:51;;;;;;;;;;;;;;;19.80;41.89;101035.47;5098265;28;767;-58
2020/12/07 06:15:19;;;;;;;;;;;;;;;19.43;42.50;101036.84;5096921;28;775;-58
2020/12/07 06:17:49;;;;;;;;;;;;;;;20.18;41.38;101030.13;5079872;28;1118;-58
2020/12/07 06:20:33;;;;;;;;;;;;;;;20.72;39.76;101038.41;5098070;28;810;-59
2020/12/07 06:23:00;;;;;;;;;;;;;;;20.41;40.58;101041.50;5096604;28;803;-59
2020/12/07 06:25:31;;;;;;;;;;;;;;;20.15;40.85;101033.47;5097504;28;969;-57
2020/12/07 06:27:57;;;;;;;;;;;;;;;19.67;42.06;101031.41;5096647;28;1906;-58
2020/12/07 06:30:23;;;;;;;;;;;;;;;19.56;42.68;101037.28;5098042;28;842;-58
2020/12/07 06:32:52;;;;;;;;;;;;;;;20.37;40.74;101036.84;5096484;28;1443;-58
2020/12/07 06:35:18;;;;;;;;;;;;;;;20.47;40.54;101031.22;5098059;28;755;-58
2020/12/07 06:37:50;;;;;;;;;;;;;;;20.40;40.58;101045.38;5097564;28;803;-58
2020/12/07 06:40:16;;;;;;;;;;;;;;;19.96;41.37;101038.09;5097307;28;1019;-57
2020/12/07 06:42:42;;;;;;;;;;;;;;;19.49;42.53;101057.75;5097602;28;771;-58
2020/12/07 06:45:09;;;;;;;;;;;;;;;20.00;41.66;101070.34;5097392;28;787;-58
2020/12/07 06:47:35;;;;;;;;;;;;;;;20.76;39.81;101080.94;5096235;28;783;-57
2020/12/07 06:50:20;;;;;;;;;;;;;;;20.31;40.66;101089.41;5096223;28;1914;-57
2020/12/07 06:52:47;;;;;;;;;;;;;;;20.07;41.08;101105.88;5097574;28;776;-56
2020/12/07 06:55:14;;;;;;;;;;;;;;;19.90;41.89;101102.75;5095853;28;1005;-57
2020/12/07 06:57:39;;;;;;;;;;;;;;;19.58;42.81;101109.56;5097317;28;831;-57
2020/12/07 07:00:06;;;;;;;;;;;;;;;20.61;40.35;101103.19;5096065;28;828;-58
2020/12/07 07:02:31;;;;;;;;;;;;;;;20.58;40.18;101087.16;5095849;28;771;-54
2020/12/07 07:04:58;;;;;;;;;;;;;;;20.39;40.88;101096.22;5097363;28;783;-57
2020/12/07 07:07:24;;;;;;;;;;;;;;;19.96;41.53;101093.28;5097144;28;788;-56
2020/12/07 07:09:49;;;;;;;;;;;;;;;19.57;42.49;101086.66;5095820;28;1917;-56
2020/12/07 07:12:15;;;;;;;;;;;;;;;19.66;42.38;101095.16;5095901;28;851;-57
2020/12/07 07:14:41;;;;;;;;;;;;;;;20.50;40.61;101092.22;5095816;28;880;-57
2020/12/07 07:17:06;;;;;;;;;;;;;;;20.21;40.96;101092.25;5095799;28;748;-57
2020/12/07 07:19:31;;;;;;;;;;;;;;;20.07;41.22;101088.50;5095832;28;1102;-56
2020/12/07 07:21:57;;;;;;;;;;;;;;;19.92;41.56;101086.69;5097011;28;756;-58
2020/12/07 07:24:24;;;;;;;;;;;;;;;19.52;42.69;101080.34;5096918;28;850;-56
2020/12/07 07:26:49;;;;;;;;;;;;;;;19.48;42.74;101078.16;5096831;28;1004;-55
2020/12/07 07:29:15;;;;;;;;;;;;;;;20.38;40.83;101083.50;5096819;28;1914;-58
2020/12/07 07:31:40;;;;;;;;;;;;;;;20.59;40.03;101091.59;5096747;28;851;-57
2020/12/07 07:34:06;;;;;;;;;;;;;;;20.18;41.08;101090.88;5096952;28;815;-59
2020/12/07 07:36:31;;;;;;;;;;;;;;;20.20;40.88;101087.00;5095668;28;895;-58
2020/12/07 07:38:58;;;;;;;;;;;;;;;19.62;42.43;101083.84;5096673;28;740;-49
2020/12/07 07:41:23;;;;;;;;;;;;;;;19.47;43.21;101087.56;5096390;28;945;-58
2020/12/07 07:43:49;;;;;;;;;;;;;;;19.54;43.24;101086.41;5097126;28;771;-65
2020/12/07 07:46:15;;;;;;;;;;;;;;;20.62;41.17;101085.47;5094944;28;744;-58
2020/12/07 07:49:32;;;;;;;;;;;;;;;19.32;38.19;101101.41;5095178;28;1913;-59
2020/12/07 08:17:12;;;;;;;;;;;;;;;18.28;38.24;101100.91;5096136;28;1124;-59
2020/12/07 08:19:38;;;;;;;;;;;;;;;17.15;35.60;101088.94;5096458;28;783;-53
2020/12/07 08:22:13;;;;;;;;;;;;;;;18.54;33.97;101086.28;5094578;28;999;-56
2020/12/07 08:24:51;;;;;;;;;;;;;;;19.43;33.36;101089.25;5096269;28;831;-57
2020/12/07 08:27:17;;;;;;;;;;;;;;;19.94;32.56;101082.53;5076131;28;811;-58
2020/12/07 08:29:42;;;;;;;;;;;;;;;20.13;32.60;101068.84;5074646;28;1914;-57
2020/12/07 08:32:23;;;;;;;;;;;;;;;20.42;32.28;101073.53;5075976;28;768;-59
2020/12/07 08:34:48;;;;;;;;;;;;;;;20.57;32.18;101075.31;5076009;28;803;-59
2020/12/07 08:37:14;;;;;;;;;;;;;;;20.79;32.35;101062.91;5075744;28;744;-58
2020/12/07 08:39:39;;;;;;;;;;;;;;;20.88;32.39;101074.16;5075864;28;886;-58
2020/12/07 08:42:05;;;;;;;;;;;;;;;20.42;33.36;101062.47;5075682;28;807;-57
2020/12/07 08:44:30;;;;;;;;;;;;;;;20.12;34.10;101053.41;5075962;28;815;-58
2020/12/07 08:46:56;;;;;;;;;;;;;;;19.92;34.74;101045.31;5075843;28;775;-58
2020/12/07 08:49:21;;;;;;;;;;;;;;;20.33;34.19;101050.44;5075725;28;1977;-59
2020/12/07 08:51:47;;;;;;;;;;;;;;;20.92;33.35;101042.03;5075959;28;788;-57
2020/12/07 08:54:14;;;;;;;;;;;;;;;20.77;33.57;101035.56;5075632;28;759;-57
2020/12/07 08:56:39;;;;;;;;;;;;;;;20.42;34.73;101034.84;5092391;28;1017;-51
2020/12/07 08:59:05;;;;;;;;;;;;;;;20.09;35.18;101026.38;5097171;28;815;-54
2020/12/07 09:01:31;;;;;;;;;;;;;;;19.88;36.13;101019.41;5099477;28;771;-58
2020/12/07 09:03:57;;;;;;;;;;;;;;;20.18;35.71;101030.13;5099634;28;751;-57
2020/12/07 09:06:22;;;;;;;;;;;;;;;20.76;34.78;101022.91;5099552;28;799;-56
2020/12/07 09:08:48;;;;;;;;;;;;;;;20.55;34.94;101018.69;5099058;28;1914;-57
2020/12/07 09:11:14;;;;;;;;;;;;;;;20.23;35.96;101015.47;5099562;28;953;-57
2020/12/07 09:13:43;;;;;;;;;;;;;;;19.77;36.79;101004.84;5099447;28;787;-58
2020/12/07 09:16:08;;;;;;;;;;;;;;;19.83;37.00;100996.25;5098974;28;764;-57
2020/12/07 09:18:34;;;;;;;;;;;;;;;20.72;35.31;100988.69;5099256;28;1245;-56
2020/12/07 09:20:59;;;;;;;;;;;;;;;20.43;35.90;100981.25;5099565;28;1040;-56
2020/12/07 09:23:25;;;;;;;;;;;;;;;20.12;36.67;100970.56;5099153;28;749;-57
2020/12/07 09:25:51;;;;;;;;;;;;;;;19.36;38.04;100981.16;5099369;28;1003;-58
2020/12/07 09:28:17;;;;;;;;;;;;;;;20.06;36.85;100968.97;5099313;28;1918;-58
2020/12/07 09:30:42;;;;;;;;;;;;;;;20.72;35.72;100969.34;5099152;28;902;-59
2020/12/07 09:33:08;;;;;;;;;;;;;;;20.49;35.80;100974.53;5099182;28;863;-58
2020/12/07 09:35:33;;;;;;;;;;;;;;;20.34;36.64;100972.81;5098861;28;752;-59
2020/12/07 09:37:59;;;;;;;;;;;;;;;19.75;37.46;100966.50;5098771;28;850;-58
2020/12/07 09:40:24;;;;;;;;;;;;;;;19.97;37.60;100965.22;5098642;28;1027;-56
2020/12/07 09:42:50;;;;;;;;;;;;;;;20.69;36.03;100961.63;5098657;28;783;-55
2020/12/07 09:45:15;;;;;;;;;;;;;;;20.42;36.66;100963.03;5098705;28;744;-53
2020/12/07 09:47:41;;;;;;;;;;;;;;;20.32;37.11;100963.19;5099077;28;748;-57
2020/12/07 09:50:06;;;;;;;;;;;;;;;19.86;38.06;100960.94;5098534;28;1979;-53
2020/12/07 09:52:32;;;;;;;;;;;;;;;20.08;37.55;100963.19;5098586;28;835;-50
2020/12/07 09:54:57;;;;;;;;;;;;;;;20.96;36.00;100963.75;5098383;28;941;-55
2020/12/07 09:57:23;;;;;;;;;;;;;;;20.56;36.86;100959.56;5096913;28;819;-57
2020/12/07 09:59:50;;;;;;;;;;;;;;;20.06;37.85;100949.66;5098717;28;779;-51
2020/12/07 10:02:16;;;;;;;;;;;;;;;19.41;39.08;100945.28;5098882;28;763;-50
2020/12/07 10:04:41;;;;;;;;;;;;;;;19.83;38.29;100954.03;5096873;28;787;-49
2020/12/07 10:07:07;;;;;;;;;;;;;;;20.67;36.85;100938.97;5098288;28;795;-50
2020/12/07 10:09:33;;;;;;;;;;;;;;;20.26;37.42;100936.72;5097912;28;1982;-50
2020/12/07 10:11:58;;;;;;;;;;;;;;;20.08;38.02;100939.16;5098259;28;950;-58
2020/12/07 10:14:23;;;;;;;;;;;;;;;19.62;38.91;100945.13;5098179;28;553;-55
2020/12/07 10:16:49;;;;;;;;;;;;;;;19.76;38.99;100935.03;5098454;28;826;-53
2020/12/07 10:19:14;;;;;;;;;;;;;;;20.57;37.23;100933.59;5079535;28;1329;-57
2020/12/07 10:21:40;;;;;;;;;;;;;;;21.17;35.80;100931.06;5098060;28;972;-54
2020/12/07 10:24:05;;;;;;;;;;;;;;;21.32;35.51;100929.16;5079498;28;864;-49
2020/12/07 10:26:31;;;;;;;;;;;;;;;20.47;37.45;100931.78;5097802;28;1016;-51
2020/12/07 10:28:57;;;;;;;;;;;;;;;20.33;37.91;100924.22;5097805;28;1913;-50
2020/12/07 10:31:22;;;;;;;;;;;;;;;19.60;39.44;100919.75;5097740;28;807;-53
2020/12/07 10:33:48;;;;;;;;;;;;;;;20.24;38.33;100920.44;5096429;28;901;-55
2020/12/07 10:36:13;;;;;;;;;;;;;;;21.02;36.72;100931.31;5096181;28;907;-57
2020/12/07 10:38:39;;;;;;;;;;;;;;;20.51;37.61;100925.38;5097586;28;519;-58
2020/12/07 10:41:05;;;;;;;;;;;;;;;20.31;37.97;100926.47;5097742;28;1009;-57
2020/12/07 10:43:30;;;;;;;;;;;;;;;19.51;39.57;100922.31;5097546;28;838;-56
2020/12/07 10:45:56;;;;;;;;;;;;;;;20.31;38.32;100922.88;5095480;28;836;-59
2020/12/07 10:48:22;;;;;;;;;;;;;;;20.81;37.20;100926.09;5097686;28;1988;-55
2020/12/07 10:50:47;;;;;;;;;;;;;;;20.21;38.46;100918.28;5097394;28;913;-57
2020/12/07 10:53:12;;;;;;;;;;;;;;;20.12;38.86;100914.56;5097404;28;839;-51
2020/12/07 10:55:38;;;;;;;;;;;;;;;19.20;40.61;100910.75;5097197;28;933;-53
2020/12/07 10:58:03;;;;;;;;;;;;;;;19.91;39.48;100898.22;5097238;28;755;-56
2020/12/07 11:00:29;;;;;;;;;;;;;;;20.73;37.70;100909.34;5095720;28;867;-57
2020/12/07 11:02:54;;;;;;;;;;;;;;;20.13;38.84;100910.66;5097713;28;855;-58
2020/12/07 11:05:20;;;;;;;;;;;;;;;20.11;39.06;100913.72;5095783;28;871;-56
2020/12/07 11:07:47;;;;;;;;;;;;;;;19.69;39.87;100915.25;5097259;28;763;-59
2020/12/07 11:10:13;;;;;;;;;;;;;;;19.72;40.13;100905.56;5097008;28;1975;-51
2020/12/07 11:12:42;;;;;;;;;;;;;;;20.69;38.08;100906.34;5096854;28;776;-53
2020/12/07 11:15:07;;;;;;;;;;;;;;;20.16;38.77;100915.56;5097777;28;822;-50
2020/12/07 11:17:33;;;;;;;;;;;;;;;20.15;39.06;100912.00;5097369;28;1146;-49
2020/12/07 11:19:58;;;;;;;;;;;;;;;19.65;40.22;100906.72;5096530;28;838;-61
2020/12/07 11:22:23;;;;;;;;;;;;;;;20.10;39.49;100898.25;5096708;28;751;-49
2020/12/07 11:24:49;;;;;;;;;;;;;;;20.81;37.95;100900.41;5096796;28;961;-52
2020/12/07 11:27:14;;;;;;;;;;;;;;;20.18;39.15;100899.56;5096837;28;807;-51
2020/12/07 11:29:40;;;;;;;;;;;;;;;20.09;39.48;100888.34;5097141;28;1969;-58
2020/12/07 11:32:05;;;;;;;;;;;;;;;19.39;40.82;100888.78;5096843;28;803;-53
2020/12/07 11:34:31;;;;;;;;;;;;;;;19.93;39.73;100892.41;5096783;28;751;-51
2020/12/07 11:36:56;;;;;;;;;;;;;;;20.84;37.87;100891.50;5096682;28;772;-56
2020/12/07 11:44:31;;;;;;;;;;;;;;;19.31;41.30;100884.72;5096674;28;740;-55
2020/12/07 11:47:01;;;;;;;;;;;;;;;20.29;39.32;100886.44;5096815;28;719;-58
2020/12/07 11:49:27;;;;;;;;;;;;;;;20.70;38.08;100879.56;5096683;28;1905;-54
2020/12/07 11:51:52;;;;;;;;;;;;;;;20.30;39.05;100877.03;5096495;28;815;-58
2020/12/07 11:54:18;;;;;;;;;;;;;;;20.09;39.52;100879.22;5096483;28;786;-54
2020/12/07 11:56:43;;;;;;;;;;;;;;;19.52;40.79;100873.47;5096297;28;961;-54
2020/12/07 11:59:09;;;;;;;;;;;;;;;20.28;39.38;100876.50;5096668;28;846;-53
2020/12/07 12:01:35;;;;;;;;;;;;;;;20.52;38.82;100880.06;5095291;28;788;-52
2020/12/07 12:04:00;;;;;;;;;;;;;;;20.28;39.23;100887.56;5096630;28;869;-60
2020/12/07 12:06:26;;;;;;;;;;;;;;;20.09;39.86;100879.22;5094674;28;900;-57
2020/12/07 12:08:52;;;;;;;;;;;;;;;19.37;41.44;100883.56;5096624;28;1902;-52
2020/12/07 12:11:18;;;;;;;;;;;;;;;19.95;40.58;100881.88;5096222;28;953;-50
2020/12/07 12:13:43;;;;;;;;;;;;;;;20.74;38.81;100878.66;5096257;28;819;-51
2020/12/07 12:16:09;;;;;;;;;;;;;;;20.26;39.58;100882.34;5095178;28;736;-52
2020/12/07 12:18:34;;;;;;;;;;;;;;;20.13;39.77;100883.88;5095868;28;1094;-52
2020/12/07 12:20:59;;;;;;;;;;;;;;;19.61;41.19;100882.78;5096073;28;791;-50
2020/12/07 12:23:25;;;;;;;;;;;;;;;19.35;41.53;100890.47;5096101;28;783;-54
2020/12/07 12:25:50;;;;;;;;;;;;;;;19.96;40.45;100886.28;5094545;28;974;-54
2020/12/07 12:28:16;;;;;;;;;;;;;;;20.67;38.87;100892.84;5095720;28;1975;-56
2020/12/07 12:30:42;;;;;;;;;;;;;;;20.51;39.20;100891.41;5096331;28;794;-54
2020/12/07 12:33:08;;;;;;;;;;;;;;;20.25;39.84;100891.72;5098491;28;811;-55
2020/12/07 12:35:33;;;;;;;;;;;;;;;19.86;40.81;100889.19;5099786;28;823;-50
2020/12/07 12:37:58;;;;;;;;;;;;;;;19.51;41.69;100899.44;5100288;28;763;-54
2020/12/07 12:40:24;;;;;;;;;;;;;;;20.12;40.57;100893.28;5099858;28;957;-50
2020/12/07 12:42:49;;;;;;;;;;;;;;;20.76;39.21;100887.50;5100046;28;783;-57
2020/12/07 12:45:15;;;;;;;;;;;;;;;20.35;39.98;100880.53;5064844;28;1228;-57
2020/12/07 12:47:40;;;;;;;;;;;;;;;20.16;40.69;100883.28;5099951;28;952;-55
2020/12/07 12:50:06;;;;;;;;;;;;;;;19.57;41.95;100885.31;5081017;28;1976;-49
2020/12/07 12:52:32;;;;;;;;;;;;;;;19.25;42.93;100894.13;5099892;28;807;-55
2020/12/07 12:54:57;;;;;;;;;;;;;;;20.50;40.07;100889.75;5099373;28;910;-53
2020/12/07 12:57:22;;;;;;;;;;;;;;;21.01;38.81;100886.28;5099491;28;763;-50
2020/12/07 12:59:48;;;;;;;;;;;;;;;20.43;40.10;100886.53;5099766;28;870;-56
2020/12/07 13:02:13;;;;;;;;;;;;;;;20.33;40.20;100884.75;5099361;28;775;-58
2020/12/07 13:04:39;;;;;;;;;;;;;;;19.85;41.17;100882.00;5099337;28;798;-56
2020/12/07 13:07:04;;;;;;;;;;;;;;;20.09;40.84;100882.84;5081265;28;1429;-56
2020/12/07 13:09:30;;;;;;;;;;;;;;;20.77;39.55;100888.28;5097957;28;1910;-55
2020/12/07 13:11:55;;;;;;;;;;;;;;;20.45;39.84;100890.63;5099035;28;1128;-55
2020/12/07 13:14:21;;;;;;;;;;;;;;;20.42;40.11;100887.66;5099348;28;806;-55
2020/12/07 13:17:07;;;;;;;;;;;;;;;19.77;41.38;100886.22;5099452;28;735;-56
2020/12/07 13:19:33;;;;;;;;;;;;;;;19.89;41.32;100883.06;5099427;28;826;-55